Terminal Aerodrome Forecast
Issued by NWS

Home | Current Version | Previous Version | Text Only | Print | Product List | Glossary On
Versions: 1 2 3 4 5 6 7 8 9 10 11 12 13 14 15 16 17 18 19 20 21
321
FTUS43 KGRB 230742 AAC
TAFMTW
TAF AMD
KMTW 230742Z 2308/2406 VRB03KT P6SM SCT020 BKN030
      TEMPO 2310/2312 5SM -SHRA BKN020
     FM231200 06005KT 6SM -RA BR OVC020
     FM232100 04009KT 5SM -RA BR OVC015
     FM240500 03008KT 6SM BR BKN015 OVC040=

USA.gov is the U.S. government's official web portal to all federal, state and local government web resources and services.